Scf Baltica — A8IA5 — position and weather

sailwx.info

Track history (hours):
 
Tides and Currents Weather Stations Pressure Air Temp Water Temp Dewpoint Dewpoint Depression Visibility Wind Speed Wind Dir Waves Ship Positions

Scf Baltica

Last reported at 2015-Jan-31 20:17 UTC. Time now 2015-Feb-01 14:45 UTC.
Position N 55°35' E 015°23'.

Length 250 m; draft 8.8 m.

Type: Ship. MMSI: 636012813.

Date/timePositionNaut miles runAvg speedWind from/ knotsBaromVisibWave heightAir tempDewpointWater temp
2015-Jan-31 20:17N 55°35' E 015°23'1014.1
2015-Jan-31 19:33N 55°31' E 015°06'1414.3
2015-Jan-31 18:33N 55°24' E 014°44'1414.1
2015-Jan-31 17:34N 55°14' E 014°27'1414.1
2015-Jan-31 16:32N 55°03' E 014°11'1514.8
2015-Jan-31 15:33N 54°57' E 013°47'1515.1
2015-Jan-31 14:33N 54°52' E 013°23'1514.7
2015-Jan-31 13:34N 54°48' E 012°59'1414.4
2015-Jan-31 12:33N 54°41' E 012°36'1313.5
2015-Jan-31 11:33N 54°33' E 012°17'1212.4
2015-Jan-31 10:33N 54°25' E 012°02'1414.3
2015-Jan-31 09:33N 54°27' E 011°38'1414.4
2015-Jan-31 08:33N 54°34' E 011°15'12311.2
2015-Jan-30 21:31N 56°37' E 011°33'1313.3
2015-Jan-30 20:33N 56°45' E 011°51'1313.3
2015-Jan-30 19:33N 56°58' E 011°44'1413.9
2015-Jan-30 18:33N 57°11' E 011°35'1414.3
2015-Jan-30 17:33N 57°25' E 011°26'1313.1
2015-Jan-30 16:33N 57°35' E 011°10'1413.8
2015-Jan-30 15:33N 57°44' E 010°51'1614.3
2015-Jan-30 14:28N 57°47' E 010°23'18713.4
2015-Jan-30 00:33N 55°31' E 006°29'1513.5
2015-Jan-29 23:25N 55°18' E 006°16'6813.5
2015-Jan-29 18:21N 54°20' E 005°14'1213.6
2015-Jan-29 17:30N 54°11' E 005°01'1313.5
2015-Jan-29 16:33N 54°02' E 004°47'121 8.6
2015-Jan-29 02:25N 52°10' E 003°29'5 5.6
2015-Jan-29 01:30N 52°07' E 003°36'6 5.9
2015-Jan-29 00:33N 52°05' E 003°44'6 6.4
2015-Jan-28 23:34N 52°02' E 003°54'8 8.3
2015-Jan-28 22:33N 51°59' E 004°06'3 3.1
2015-Jan-28 21:31N 51°56' E 004°10'0 0.0
2015-Jan-28 20:31N 51°56' E 004°10'0 0.0
2015-Jan-28 19:28N 51°56' E 004°10'0 0.0
2015-Jan-28 18:31N 51°56' E 004°10'0 0.0
2015-Jan-28 17:28N 51°56' E 004°10'0 0.0
2015-Jan-28 16:31N 51°56' E 004°10'0 0.0
2015-Jan-28 15:31N 51°56' E 004°10'0 0.0
2015-Jan-28 14:31N 51°56' E 004°10'0 0.0
2015-Jan-28 13:28N 51°56' E 004°10'0 0.0
2015-Jan-28 12:31N 51°56' E 004°10'0 0.0
2015-Jan-28 11:31N 51°56' E 004°10'0 0.0
2015-Jan-28 10:28N 51°56' E 004°10'0 0.0
2015-Jan-28 09:28N 51°56' E 004°10'0 0.0
2015-Jan-28 08:28N 51°56' E 004°10'0 0.0
2015-Jan-28 07:31N 51°56' E 004°10'0 0.0
2015-Jan-28 06:25N 51°56' E 004°10'0 0.0
2015-Jan-28 05:31N 51°56' E 004°10'0 0.0
2015-Jan-28 04:31N 51°56' E 004°10'0 0.0
2015-Jan-28 03:31N 51°56' E 004°10'0 0.0
2015-Jan-28 02:32N 51°56' E 004°10'0 0.0
2015-Jan-28 01:28N 51°56' E 004°10'0 0.0
2015-Jan-28 00:31N 51°56' E 004°10'0 0.0
2015-Jan-27 23:31N 51°56' E 004°10'0 0.0
2015-Jan-27 22:31N 51°56' E 004°10'0 0.0
2015-Jan-27 21:31N 51°56' E 004°10'0 0.0
2015-Jan-27 20:31N 51°56' E 004°10'0 0.0
2015-Jan-27 19:31N 51°56' E 004°10'0 0.0
2015-Jan-27 18:31N 51°56' E 004°10'0 0.0
2015-Jan-27 17:31N 51°56' E 004°10'0 0.0
2015-Jan-27 16:31N 51°56' E 004°10'1 1.0
2015-Jan-27 15:33N 51°57' E 004°09'9 8.9
2015-Jan-27 14:33N 52°01' E 003°56'9 8.7
2015-Jan-27 13:33N 52°01' E 003°42'34810.8
2015-Jan-26 05:16N 57°22' E 007°37'811.5
2015-Jan-26 04:32N 57°26' E 007°51'8811.0
2015-Jan-25 20:32N 57°50' E 010°29'1111.0
2015-Jan-25 19:33N 57°47' E 010°48'1111.1
2015-Jan-25 18:33N 57°40' E 011°04'1313.1
2015-Jan-25 17:33N 57°31' E 011°21'1212.4
2015-Jan-25 16:33N 57°19' E 011°32'1713.3
2015-Jan-25 15:17N 57°03' E 011°42'1013.2
2015-Jan-25 14:33N 56°54' E 011°48'1212.2
2015-Jan-25 13:33N 56°42' E 011°51'12611.0
2015-Jan-25 02:06N 54°42' E 010°47'711.5
2015-Jan-25 01:31N 54°38' E 010°56'1212.3
2015-Jan-25 00:33N 54°35' E 011°15'1312.8
2015-Jan-24 23:33N 54°29' E 011°35'1212.1
2015-Jan-24 22:33N 54°26' E 011°55'1110.5
2015-Jan-24 21:33N 54°30' E 012°13'10 9.6
2015-Jan-24 20:33N 54°38' E 012°21'8 8.2
2015-Jan-24 19:33N 54°42' E 012°33'8 8.4
2015-Jan-24 18:33N 54°47' E 012°45'10 9.7
2015-Jan-24 17:33N 54°51' E 013°01'1511.1
2015-Jan-24 16:12N 54°56' E 013°25'812.6
2015-Jan-24 15:33N 54°58' E 013°39'2511.4
2015-Jan-24 13:23N 55°11' E 014°16'911.1
2015-Jan-24 12:33N 55°18' E 014°26'1211.4
2015-Jan-24 11:33N 55°27' E 014°39'1111.4
2015-Jan-24 10:33N 55°33' E 014°56'1311.5
2015-Jan-24 09:24N 55°38' E 015°17'35011.7
2015-Jan-23 03:24N 59°37' E 023°15'1112.9
2015-Jan-23 02:33N 59°40' E 023°36'1312.8
2015-Jan-23 01:33N 59°44' E 024°00'1212.7
2015-Jan-23 00:33N 59°47' E 024°24'1312.7
2015-Jan-22 23:33N 59°49' E 024°49'5112.5
2015-Jan-22 19:30N 60°01' E 026°28'1212.3
2015-Jan-22 18:33N 60°00' E 026°51'1411.7
2015-Jan-22 17:21N 60°04' E 027°19'  
Track history (hours):
 
Tides and Currents Weather Stations Pressure Air Temp Water Temp Dewpoint Dewpoint Depression Visibility Wind Speed Wind Dir Waves Ship Positions

Scf Baltica

Last reported at 2015-Jan-31 20:17 UTC. Time now 2015-Feb-01 14:45 UTC.
Position N 55°35' E 015°23'.

Length 250 m; draft 8.8 m.

Type: Ship. MMSI: 636012813.

Date/timePositionNaut miles runAvg speedWind from/ knotsBaromVisibWave heightAir tempDewpointWater temp
2015-Jan-31 20:17N 55°35' E 015°23'1014.1
2015-Jan-31 19:33N 55°31' E 015°06'1414.3
2015-Jan-31 18:33N 55°24' E 014°44'1414.1
2015-Jan-31 17:34N 55°14' E 014°27'1414.1
2015-Jan-31 16:32N 55°03' E 014°11'1514.8
2015-Jan-31 15:33N 54°57' E 013°47'1515.1
2015-Jan-31 14:33N 54°52' E 013°23'1514.7
2015-Jan-31 13:34N 54°48' E 012°59'1414.4
2015-Jan-31 12:33N 54°41' E 012°36'1313.5
2015-Jan-31 11:33N 54°33' E 012°17'1212.4
2015-Jan-31 10:33N 54°25' E 012°02'1414.3
2015-Jan-31 09:33N 54°27' E 011°38'1414.4
2015-Jan-31 08:33N 54°34' E 011°15'12311.2
2015-Jan-30 21:31N 56°37' E 011°33'1313.3
2015-Jan-30 20:33N 56°45' E 011°51'1313.3
2015-Jan-30 19:33N 56°58' E 011°44'1413.9
2015-Jan-30 18:33N 57°11' E 011°35'1414.3
2015-Jan-30 17:33N 57°25' E 011°26'1313.1
2015-Jan-30 16:33N 57°35' E 011°10'1413.8
2015-Jan-30 15:33N 57°44' E 010°51'1614.3
2015-Jan-30 14:28N 57°47' E 010°23'18713.4
2015-Jan-30 00:33N 55°31' E 006°29'1513.5
2015-Jan-29 23:25N 55°18' E 006°16'6813.5
2015-Jan-29 18:21N 54°20' E 005°14'1213.6
2015-Jan-29 17:30N 54°11' E 005°01'1313.5
2015-Jan-29 16:33N 54°02' E 004°47'121 8.6
2015-Jan-29 02:25N 52°10' E 003°29'5 5.6
2015-Jan-29 01:30N 52°07' E 003°36'6 5.9
2015-Jan-29 00:33N 52°05' E 003°44'6 6.4
2015-Jan-28 23:34N 52°02' E 003°54'8 8.3
2015-Jan-28 22:33N 51°59' E 004°06'3 3.1
2015-Jan-28 21:31N 51°56' E 004°10'0 0.0
2015-Jan-28 20:31N 51°56' E 004°10'0 0.0
2015-Jan-28 19:28N 51°56' E 004°10'0 0.0
2015-Jan-28 18:31N 51°56' E 004°10'0 0.0
2015-Jan-28 17:28N 51°56' E 004°10'0 0.0
2015-Jan-28 16:31N 51°56' E 004°10'0 0.0
2015-Jan-28 15:31N 51°56' E 004°10'0 0.0
2015-Jan-28 14:31N 51°56' E 004°10'0 0.0
2015-Jan-28 13:28N 51°56' E 004°10'0 0.0
2015-Jan-28 12:31N 51°56' E 004°10'0 0.0
2015-Jan-28 11:31N 51°56' E 004°10'0 0.0
2015-Jan-28 10:28N 51°56' E 004°10'0 0.0
2015-Jan-28 09:28N 51°56' E 004°10'0 0.0
2015-Jan-28 08:28N 51°56' E 004°10'0 0.0
2015-Jan-28 07:31N 51°56' E 004°10'0 0.0
2015-Jan-28 06:25N 51°56' E 004°10'0 0.0
2015-Jan-28 05:31N 51°56' E 004°10'0 0.0
2015-Jan-28 04:31N 51°56' E 004°10'0 0.0
2015-Jan-28 03:31N 51°56' E 004°10'0 0.0
2015-Jan-28 02:32N 51°56' E 004°10'0 0.0
2015-Jan-28 01:28N 51°56' E 004°10'0 0.0
2015-Jan-28 00:31N 51°56' E 004°10'0 0.0
2015-Jan-27 23:31N 51°56' E 004°10'0 0.0
2015-Jan-27 22:31N 51°56' E 004°10'0 0.0
2015-Jan-27 21:31N 51°56' E 004°10'0 0.0
2015-Jan-27 20:31N 51°56' E 004°10'0 0.0
2015-Jan-27 19:31N 51°56' E 004°10'0 0.0
2015-Jan-27 18:31N 51°56' E 004°10'0 0.0
2015-Jan-27 17:31N 51°56' E 004°10'0 0.0
2015-Jan-27 16:31N 51°56' E 004°10'1 1.0
2015-Jan-27 15:33N 51°57' E 004°09'9 8.9
2015-Jan-27 14:33N 52°01' E 003°56'9 8.7
2015-Jan-27 13:33N 52°01' E 003°42'34810.8
2015-Jan-26 05:16N 57°22' E 007°37'811.5
2015-Jan-26 04:32N 57°26' E 007°51'8811.0
2015-Jan-25 20:32N 57°50' E 010°29'1111.0
2015-Jan-25 19:33N 57°47' E 010°48'1111.1
2015-Jan-25 18:33N 57°40' E 011°04'1313.1
2015-Jan-25 17:33N 57°31' E 011°21'1212.4
2015-Jan-25 16:33N 57°19' E 011°32'1713.3
2015-Jan-25 15:17N 57°03' E 011°42'1013.2
2015-Jan-25 14:33N 56°54' E 011°48'1212.2
2015-Jan-25 13:33N 56°42' E 011°51'12611.0
2015-Jan-25 02:06N 54°42' E 010°47'711.5
2015-Jan-25 01:31N 54°38' E 010°56'1212.3
2015-Jan-25 00:33N 54°35' E 011°15'1312.8
2015-Jan-24 23:33N 54°29' E 011°35'1212.1
2015-Jan-24 22:33N 54°26' E 011°55'1110.5
2015-Jan-24 21:33N 54°30' E 012°13'10 9.6
2015-Jan-24 20:33N 54°38' E 012°21'8 8.2
2015-Jan-24 19:33N 54°42' E 012°33'8 8.4
2015-Jan-24 18:33N 54°47' E 012°45'10 9.7
2015-Jan-24 17:33N 54°51' E 013°01'1511.1
2015-Jan-24 16:12N 54°56' E 013°25'812.6
2015-Jan-24 15:33N 54°58' E 013°39'2511.4
2015-Jan-24 13:23N 55°11' E 014°16'911.1
2015-Jan-24 12:33N 55°18' E 014°26'1211.4
2015-Jan-24 11:33N 55°27' E 014°39'1111.4
2015-Jan-24 10:33N 55°33' E 014°56'1311.5
2015-Jan-24 09:24N 55°38' E 015°17'35011.7
2015-Jan-23 03:24N 59°37' E 023°15'1112.9
2015-Jan-23 02:33N 59°40' E 023°36'1312.8
2015-Jan-23 01:33N 59°44' E 024°00'1212.7
2015-Jan-23 00:33N 59°47' E 024°24'1312.7
2015-Jan-22 23:33N 59°49' E 024°49'5112.5
2015-Jan-22 19:30N 60°01' E 026°28'1212.3
2015-Jan-22 18:33N 60°00' E 026°51'1411.7
2015-Jan-22 17:21N 60°04' E 027°19'  

Dump ship's entire track history